sensor_id;sensor_type;location;lat;lon;timestamp;P1;durP1;ratioP1;P2;durP2;ratioP2
19609;SDS011;9952;47.122;-1.638;2022-08-21T00:00:46;12.17;;;2.70;;
19609;SDS011;9952;47.122;-1.638;2022-08-21T00:05:28;5.67;;;1.90;;
19609;SDS011;9952;47.122;-1.638;2022-08-21T00:10:10;13.83;;;2.60;;
19609;SDS011;9952;47.122;-1.638;2022-08-21T00:14:51;8.70;;;2.10;;
19609;SDS011;9952;47.122;-1.638;2022-08-21T00:19:33;7.10;;;2.00;;
19609;SDS011;9952;47.122;-1.638;2022-08-21T00:24:13;10.13;;;2.23;;
19609;SDS011;9952;47.122;-1.638;2022-08-21T00:28:54;11.77;;;2.27;;
19609;SDS011;9952;47.122;-1.638;2022-08-21T00:33:35;12.43;;;2.57;;
19609;SDS011;9952;47.122;-1.638;2022-08-21T00:38:16;7.37;;;2.10;;
19609;SDS011;9952;47.122;-1.638;2022-08-21T00:42:57;14.77;;;2.77;;
19609;SDS011;9952;47.122;-1.638;2022-08-21T00:47:38;14.17;;;2.43;;
19609;SDS011;9952;47.122;-1.638;2022-08-21T00:52:20;9.87;;;2.53;;
19609;SDS011;9952;47.122;-1.638;2022-08-21T00:57:09;8.03;;;1.80;;
19609;SDS011;9952;47.122;-1.638;2022-08-21T01:01:56;7.50;;;1.87;;
19609;SDS011;9952;47.122;-1.638;2022-08-21T01:06:37;13.07;;;2.47;;
19609;SDS011;9952;47.122;-1.638;2022-08-21T01:11:17;7.93;;;2.30;;
19609;SDS011;9952;47.122;-1.638;2022-08-21T01:15:59;7.50;;;2.17;;
19609;SDS011;9952;47.122;-1.638;2022-08-21T01:20:44;9.23;;;2.23;;
19609;SDS011;9952;47.122;-1.638;2022-08-21T01:25:44;10.83;;;2.43;;
19609;SDS011;9952;47.122;-1.638;2022-08-21T01:30:26;10.43;;;2.67;;
19609;SDS011;9952;47.122;-1.638;2022-08-21T01:35:07;8.60;;;1.70;;
19609;SDS011;9952;47.122;-1.638;2022-08-21T01:39:48;10.13;;;2.30;;
19609;SDS011;9952;47.122;-1.638;2022-08-21T01:44:29;8.43;;;2.13;;
19609;SDS011;9952;47.122;-1.638;2022-08-21T01:49:10;9.03;;;2.50;;
19609;SDS011;9952;47.122;-1.638;2022-08-21T01:53:51;5.93;;;1.80;;
19609;SDS011;9952;47.122;-1.638;2022-08-21T01:58:32;11.30;;;2.73;;
19609;SDS011;9952;47.122;-1.638;2022-08-21T02:03:13;7.97;;;2.30;;
19609;SDS011;9952;47.122;-1.638;2022-08-21T02:07:54;12.43;;;2.47;;
19609;SDS011;9952;47.122;-1.638;2022-08-21T02:12:35;6.40;;;2.00;;
19609;SDS011;9952;47.122;-1.638;2022-08-21T02:17:16;12.10;;;2.17;;
19609;SDS011;9952;47.122;-1.638;2022-08-21T02:21:57;5.63;;;2.00;;
19609;SDS011;9952;47.122;-1.638;2022-08-21T02:26:38;14.27;;;2.60;;
19609;SDS011;9952;47.122;-1.638;2022-08-21T02:31:19;9.10;;;2.63;;
19609;SDS011;9952;47.122;-1.638;2022-08-21T02:36:00;12.57;;;3.73;;
19609;SDS011;9952;47.122;-1.638;2022-08-21T02:40:43;10.40;;;3.30;;
19609;SDS011;9952;47.122;-1.638;2022-08-21T02:45:25;8.93;;;2.70;;
19609;SDS011;9952;47.122;-1.638;2022-08-21T02:50:07;12.83;;;2.77;;
19609;SDS011;9952;47.122;-1.638;2022-08-21T02:54:48;13.63;;;3.13;;
19609;SDS011;9952;47.122;-1.638;2022-08-21T02:59:29;14.00;;;3.33;;
19609;SDS011;9952;47.122;-1.638;2022-08-21T03:04:10;12.07;;;2.60;;
19609;SDS011;9952;47.122;-1.638;2022-08-21T03:08:51;7.93;;;2.40;;
19609;SDS011;9952;47.122;-1.638;2022-08-21T03:13:32;10.90;;;2.67;;
19609;SDS011;9952;47.122;-1.638;2022-08-21T03:18:13;6.30;;;2.60;;
19609;SDS011;9952;47.122;-1.638;2022-08-21T03:22:54;9.20;;;2.70;;
19609;SDS011;9952;47.122;-1.638;2022-08-21T03:27:35;12.83;;;3.13;;
19609;SDS011;9952;47.122;-1.638;2022-08-21T03:32:17;14.67;;;3.27;;
19609;SDS011;9952;47.122;-1.638;2022-08-21T03:36:57;10.97;;;3.00;;
19609;SDS011;9952;47.122;-1.638;2022-08-21T03:41:38;12.23;;;2.50;;
19609;SDS011;9952;47.122;-1.638;2022-08-21T03:46:19;11.53;;;2.73;;
19609;SDS011;9952;47.122;-1.638;2022-08-21T03:51:00;11.27;;;2.23;;
19609;SDS011;9952;47.122;-1.638;2022-08-21T03:55:41;10.80;;;2.70;;
19609;SDS011;9952;47.122;-1.638;2022-08-21T04:00:22;9.70;;;2.50;;
19609;SDS011;9952;47.122;-1.638;2022-08-21T04:05:04;11.33;;;2.53;;
19609;SDS011;9952;47.122;-1.638;2022-08-21T04:09:45;12.70;;;2.60;;
19609;SDS011;9952;47.122;-1.638;2022-08-21T04:14:26;10.53;;;2.30;;
19609;SDS011;9952;47.122;-1.638;2022-08-21T04:19:07;11.53;;;2.90;;
19609;SDS011;9952;47.122;-1.638;2022-08-21T04:23:49;17.07;;;2.77;;
19609;SDS011;9952;47.122;-1.638;2022-08-21T04:28:30;12.97;;;2.93;;
19609;SDS011;9952;47.122;-1.638;2022-08-21T04:33:11;13.87;;;3.70;;
19609;SDS011;9952;47.122;-1.638;2022-08-21T04:37:51;11.67;;;3.10;;
19609;SDS011;9952;47.122;-1.638;2022-08-21T04:42:32;11.90;;;2.93;;
19609;SDS011;9952;47.122;-1.638;2022-08-21T04:47:20;11.83;;;3.03;;
19609;SDS011;9952;47.122;-1.638;2022-08-21T04:52:01;13.93;;;2.80;;
19609;SDS011;9952;47.122;-1.638;2022-08-21T04:56:44;12.30;;;2.83;;
19609;SDS011;9952;47.122;-1.638;2022-08-21T05:01:30;11.17;;;2.80;;
19609;SDS011;9952;47.122;-1.638;2022-08-21T05:06:14;12.77;;;2.70;;
19609;SDS011;9952;47.122;-1.638;2022-08-21T05:10:56;12.73;;;2.63;;
19609;SDS011;9952;47.122;-1.638;2022-08-21T05:15:39;13.27;;;2.93;;
19609;SDS011;9952;47.122;-1.638;2022-08-21T05:20:20;13.23;;;2.47;;
19609;SDS011;9952;47.122;-1.638;2022-08-21T05:25:01;9.67;;;2.40;;
19609;SDS011;9952;47.122;-1.638;2022-08-21T05:29:42;11.60;;;2.23;;
19609;SDS011;9952;47.122;-1.638;2022-08-21T05:34:23;14.97;;;3.13;;
19609;SDS011;9952;47.122;-1.638;2022-08-21T05:39:04;11.70;;;3.10;;
19609;SDS011;9952;47.122;-1.638;2022-08-21T05:43:45;14.93;;;3.60;;
19609;SDS011;9952;47.122;-1.638;2022-08-21T05:48:26;11.90;;;2.50;;
19609;SDS011;9952;47.122;-1.638;2022-08-21T05:53:07;7.80;;;2.33;;
19609;SDS011;9952;47.122;-1.638;2022-08-21T05:57:49;10.10;;;2.57;;
19609;SDS011;9952;47.122;-1.638;2022-08-21T06:02:30;9.93;;;2.53;;
19609;SDS011;9952;47.122;-1.638;2022-08-21T06:07:11;10.40;;;2.57;;
19609;SDS011;9952;47.122;-1.638;2022-08-21T06:11:52;11.30;;;2.47;;
19609;SDS011;9952;47.122;-1.638;2022-08-21T06:16:33;13.53;;;2.90;;
19609;SDS011;9952;47.122;-1.638;2022-08-21T06:21:14;10.00;;;2.43;;
19609;SDS011;9952;47.122;-1.638;2022-08-21T06:25:55;10.17;;;2.30;;
19609;SDS011;9952;47.122;-1.638;2022-08-21T06:30:37;12.57;;;2.80;;
19609;SDS011;9952;47.122;-1.638;2022-08-21T06:35:18;12.07;;;2.63;;
19609;SDS011;9952;47.122;-1.638;2022-08-21T06:39:59;12.17;;;3.37;;
19609;SDS011;9952;47.122;-1.638;2022-08-21T06:44:40;16.33;;;2.80;;
19609;SDS011;9952;47.122;-1.638;2022-08-21T06:49:21;8.67;;;2.40;;
19609;SDS011;9952;47.122;-1.638;2022-08-21T06:54:02;9.63;;;2.83;;
19609;SDS011;9952;47.122;-1.638;2022-08-21T06:58:43;13.53;;;3.23;;
19609;SDS011;9952;47.122;-1.638;2022-08-21T07:03:26;13.20;;;3.20;;
19609;SDS011;9952;47.122;-1.638;2022-08-21T07:08:12;12.57;;;3.43;;
19609;SDS011;9952;47.122;-1.638;2022-08-21T07:12:53;13.67;;;2.90;;
19609;SDS011;9952;47.122;-1.638;2022-08-21T07:17:35;13.10;;;3.33;;
19609;SDS011;9952;47.122;-1.638;2022-08-21T07:22:15;13.13;;;3.00;;
19609;SDS011;9952;47.122;-1.638;2022-08-21T07:27:00;15.93;;;3.33;;
19609;SDS011;9952;47.122;-1.638;2022-08-21T07:31:41;11.77;;;3.33;;
19609;SDS011;9952;47.122;-1.638;2022-08-21T07:36:21;8.67;;;2.60;;
19609;SDS011;9952;47.122;-1.638;2022-08-21T07:41:04;9.50;;;2.63;;
19609;SDS011;9952;47.122;-1.638;2022-08-21T07:45:58;17.10;;;3.13;;
19609;SDS011;9952;47.122;-1.638;2022-08-21T07:50:39;15.83;;;3.63;;
19609;SDS011;9952;47.122;-1.638;2022-08-21T07:55:22;9.33;;;2.60;;
19609;SDS011;9952;47.122;-1.638;2022-08-21T08:00:04;9.90;;;3.10;;
19609;SDS011;9952;47.122;-1.638;2022-08-21T08:04:46;13.40;;;2.73;;
19609;SDS011;9952;47.122;-1.638;2022-08-21T08:09:27;12.57;;;2.47;;
19609;SDS011;9952;47.122;-1.638;2022-08-21T08:14:08;12.67;;;2.87;;
19609;SDS011;9952;47.122;-1.638;2022-08-21T08:18:49;10.30;;;2.50;;
19609;SDS011;9952;47.122;-1.638;2022-08-21T08:23:31;13.03;;;2.47;;
19609;SDS011;9952;47.122;-1.638;2022-08-21T08:28:12;12.20;;;2.80;;
19609;SDS011;9952;47.122;-1.638;2022-08-21T08:32:53;9.53;;;2.60;;
19609;SDS011;9952;47.122;-1.638;2022-08-21T08:37:34;12.63;;;2.20;;
19609;SDS011;9952;47.122;-1.638;2022-08-21T08:42:20;9.43;;;2.33;;
19609;SDS011;9952;47.122;-1.638;2022-08-21T08:47:08;11.80;;;2.50;;
19609;SDS011;9952;47.122;-1.638;2022-08-21T08:57:14;10.80;;;2.60;;
19609;SDS011;9952;47.122;-1.638;2022-08-21T09:01:57;10.97;;;2.37;;
19609;SDS011;9952;47.122;-1.638;2022-08-21T09:17:31;10.07;;;2.40;;
19609;SDS011;9952;47.122;-1.638;2022-08-21T09:27:34;10.70;;;2.50;;
19609;SDS011;9952;47.122;-1.638;2022-08-21T09:32:17;11.87;;;2.63;;
19609;SDS011;9952;47.122;-1.638;2022-08-21T09:36:59;8.23;;;2.30;;
19609;SDS011;9952;47.122;-1.638;2022-08-21T09:41:40;7.07;;;2.23;;
19609;SDS011;9952;47.122;-1.638;2022-08-21T09:46:22;8.30;;;1.70;;
19609;SDS011;9952;47.122;-1.638;2022-08-21T09:51:06;8.80;;;2.00;;
19609;SDS011;9952;47.122;-1.638;2022-08-21T09:55:52;8.33;;;2.10;;
19609;SDS011;9952;47.122;-1.638;2022-08-21T10:00:57;9.77;;;2.30;;
19609;SDS011;9952;47.122;-1.638;2022-08-21T10:05:40;11.83;;;2.70;;
19609;SDS011;9952;47.122;-1.638;2022-08-21T10:10:31;10.37;;;1.83;;
19609;SDS011;9952;47.122;-1.638;2022-08-21T10:20:20;10.73;;;1.93;;
19609;SDS011;9952;47.122;-1.638;2022-08-21T10:30:14;4.53;;;0.77;;
19609;SDS011;9952;47.122;-1.638;2022-08-21T10:35:13;3.73;;;0.90;;
19609;SDS011;9952;47.122;-1.638;2022-08-21T11:04:26;7.00;;;1.00;;
19609;SDS011;9952;47.122;-1.638;2022-08-21T11:09:18;5.77;;;1.57;;
19609;SDS011;9952;47.122;-1.638;2022-08-21T11:14:03;5.07;;;1.07;;
19609;SDS011;9952;47.122;-1.638;2022-08-21T11:18:53;5.80;;;1.27;;
19609;SDS011;9952;47.122;-1.638;2022-08-21T11:33:44;5.13;;;1.30;;
19609;SDS011;9952;47.122;-1.638;2022-08-21T11:38:35;3.70;;;1.20;;
19609;SDS011;9952;47.122;-1.638;2022-08-21T11:58:22;3.20;;;0.93;;
19609;SDS011;9952;47.122;-1.638;2022-08-21T12:03:13;5.80;;;1.00;;
19609;SDS011;9952;47.122;-1.638;2022-08-21T12:08:26;3.43;;;1.03;;
19609;SDS011;9952;47.122;-1.638;2022-08-21T12:13:23;2.97;;;1.10;;
19609;SDS011;9952;47.122;-1.638;2022-08-21T12:18:20;6.33;;;1.37;;
19609;SDS011;9952;47.122;-1.638;2022-08-21T12:28:14;4.13;;;1.00;;
19609;SDS011;9952;47.122;-1.638;2022-08-21T12:33:03;2.70;;;1.07;;
19609;SDS011;9952;47.122;-1.638;2022-08-21T12:42:39;2.60;;;0.93;;
19609;SDS011;9952;47.122;-1.638;2022-08-21T12:57:35;5.30;;;1.27;;
19609;SDS011;9952;47.122;-1.638;2022-08-21T13:02:18;3.47;;;1.03;;
19609;SDS011;9952;47.122;-1.638;2022-08-21T13:07:05;4.00;;;1.30;;
19609;SDS011;9952;47.122;-1.638;2022-08-21T13:11:52;3.53;;;1.00;;
19609;SDS011;9952;47.122;-1.638;2022-08-21T13:16:33;4.27;;;1.30;;
19609;SDS011;9952;47.122;-1.638;2022-08-21T13:21:14;3.47;;;1.13;;
19609;SDS011;9952;47.122;-1.638;2022-08-21T13:25:55;4.00;;;1.10;;
19609;SDS011;9952;47.122;-1.638;2022-08-21T13:30:39;3.80;;;1.03;;
19609;SDS011;9952;47.122;-1.638;2022-08-21T13:35:26;4.67;;;1.10;;
19609;SDS011;9952;47.122;-1.638;2022-08-21T13:40:17;4.53;;;1.33;;
19609;SDS011;9952;47.122;-1.638;2022-08-21T13:45:02;5.87;;;1.43;;
19609;SDS011;9952;47.122;-1.638;2022-08-21T13:49:44;4.03;;;1.30;;
19609;SDS011;9952;47.122;-1.638;2022-08-21T13:54:34;4.30;;;0.87;;
19609;SDS011;9952;47.122;-1.638;2022-08-21T13:59:51;4.67;;;1.10;;
19609;SDS011;9952;47.122;-1.638;2022-08-21T14:04:33;3.53;;;0.90;;
19609;SDS011;9952;47.122;-1.638;2022-08-21T14:24:05;1.20;;;0.63;;
19609;SDS011;9952;47.122;-1.638;2022-08-21T14:28:57;2.37;;;0.73;;
19609;SDS011;9952;47.122;-1.638;2022-08-21T14:33:40;1.47;;;0.70;;
19609;SDS011;9952;47.122;-1.638;2022-08-21T14:38:22;1.73;;;1.00;;
19609;SDS011;9952;47.122;-1.638;2022-08-21T14:43:04;3.07;;;0.87;;
19609;SDS011;9952;47.122;-1.638;2022-08-21T14:47:45;2.50;;;0.80;;
19609;SDS011;9952;47.122;-1.638;2022-08-21T14:52:26;1.63;;;0.90;;
19609;SDS011;9952;47.122;-1.638;2022-08-21T14:57:08;1.00;;;0.90;;
19609;SDS011;9952;47.122;-1.638;2022-08-21T15:01:50;2.27;;;0.80;;
19609;SDS011;9952;47.122;-1.638;2022-08-21T15:11:32;2.33;;;1.40;;
19609;SDS011;9952;47.122;-1.638;2022-08-21T15:16:14;5.73;;;1.90;;
19609;SDS011;9952;47.122;-1.638;2022-08-21T15:20:55;3.70;;;1.70;;
19609;SDS011;9952;47.122;-1.638;2022-08-21T15:25:36;1.77;;;1.03;;
19609;SDS011;9952;47.122;-1.638;2022-08-21T15:30:19;6.20;;;1.57;;
19609;SDS011;9952;47.122;-1.638;2022-08-21T15:35:00;2.50;;;1.37;;
19609;SDS011;9952;47.122;-1.638;2022-08-21T15:39:42;2.40;;;1.40;;
19609;SDS011;9952;47.122;-1.638;2022-08-21T15:44:23;1.17;;;1.00;;
19609;SDS011;9952;47.122;-1.638;2022-08-21T15:49:05;1.97;;;1.13;;
19609;SDS011;9952;47.122;-1.638;2022-08-21T15:53:47;1.70;;;0.87;;
19609;SDS011;9952;47.122;-1.638;2022-08-21T15:58:28;4.53;;;0.97;;
19609;SDS011;9952;47.122;-1.638;2022-08-21T16:03:09;2.67;;;0.97;;
19609;SDS011;9952;47.122;-1.638;2022-08-21T16:07:56;2.73;;;1.10;;
19609;SDS011;9952;47.122;-1.638;2022-08-21T16:12:40;1.87;;;1.40;;
19609;SDS011;9952;47.122;-1.638;2022-08-21T16:17:26;2.83;;;1.63;;
19609;SDS011;9952;47.122;-1.638;2022-08-21T16:22:10;3.70;;;1.70;;
19609;SDS011;9952;47.122;-1.638;2022-08-21T16:26:50;1.30;;;1.20;;
19609;SDS011;9952;47.122;-1.638;2022-08-21T16:31:32;1.50;;;1.10;;
19609;SDS011;9952;47.122;-1.638;2022-08-21T16:36:13;1.90;;;1.10;;
19609;SDS011;9952;47.122;-1.638;2022-08-21T16:40:54;10.73;;;1.80;;
19609;SDS011;9952;47.122;-1.638;2022-08-21T16:45:35;2.10;;;1.03;;
19609;SDS011;9952;47.122;-1.638;2022-08-21T16:50:21;0.80;;;0.80;;
19609;SDS011;9952;47.122;-1.638;2022-08-21T16:55:03;1.67;;;1.20;;
19609;SDS011;9952;47.122;-1.638;2022-08-21T16:59:44;2.60;;;1.37;;
19609;SDS011;9952;47.122;-1.638;2022-08-21T17:04:25;2.03;;;1.20;;
19609;SDS011;9952;47.122;-1.638;2022-08-21T17:09:07;2.83;;;1.47;;
19609;SDS011;9952;47.122;-1.638;2022-08-21T17:13:48;1.80;;;1.07;;
19609;SDS011;9952;47.122;-1.638;2022-08-21T17:18:29;2.33;;;1.10;;
19609;SDS011;9952;47.122;-1.638;2022-08-21T17:23:10;2.77;;;0.97;;
19609;SDS011;9952;47.122;-1.638;2022-08-21T17:27:50;2.40;;;1.10;;
19609;SDS011;9952;47.122;-1.638;2022-08-21T17:32:32;1.60;;;1.10;;
19609;SDS011;9952;47.122;-1.638;2022-08-21T17:37:13;4.93;;;1.33;;
19609;SDS011;9952;47.122;-1.638;2022-08-21T17:41:54;1.33;;;1.23;;
19609;SDS011;9952;47.122;-1.638;2022-08-21T17:46:40;2.77;;;1.47;;
19609;SDS011;9952;47.122;-1.638;2022-08-21T17:51:21;6.93;;;1.80;;
19609;SDS011;9952;47.122;-1.638;2022-08-21T17:56:03;6.17;;;1.60;;
19609;SDS011;9952;47.122;-1.638;2022-08-21T18:06:41;2.93;;;1.10;;
19609;SDS011;9952;47.122;-1.638;2022-08-21T18:11:24;2.33;;;1.10;;
19609;SDS011;9952;47.122;-1.638;2022-08-21T18:16:10;3.43;;;1.07;;
19609;SDS011;9952;47.122;-1.638;2022-08-21T18:20:58;4.00;;;0.90;;
19609;SDS011;9952;47.122;-1.638;2022-08-21T18:25:40;2.20;;;1.13;;
19609;SDS011;9952;47.122;-1.638;2022-08-21T18:30:25;4.63;;;1.20;;
19609;SDS011;9952;47.122;-1.638;2022-08-21T18:35:06;3.17;;;1.17;;
19609;SDS011;9952;47.122;-1.638;2022-08-21T18:39:48;4.37;;;1.10;;
19609;SDS011;9952;47.122;-1.638;2022-08-21T18:44:29;4.23;;;1.10;;
19609;SDS011;9952;47.122;-1.638;2022-08-21T18:49:11;6.00;;;1.50;;
19609;SDS011;9952;47.122;-1.638;2022-08-21T18:53:51;4.90;;;1.20;;
19609;SDS011;9952;47.122;-1.638;2022-08-21T18:58:33;6.20;;;1.10;;
19609;SDS011;9952;47.122;-1.638;2022-08-21T19:03:16;5.43;;;1.40;;
19609;SDS011;9952;47.122;-1.638;2022-08-21T19:07:59;4.67;;;1.10;;
19609;SDS011;9952;47.122;-1.638;2022-08-21T19:12:39;3.37;;;1.00;;
19609;SDS011;9952;47.122;-1.638;2022-08-21T19:17:24;4.77;;;1.10;;
19609;SDS011;9952;47.122;-1.638;2022-08-21T19:22:06;7.67;;;1.30;;
19609;SDS011;9952;47.122;-1.638;2022-08-21T19:26:47;2.80;;;1.10;;
19609;SDS011;9952;47.122;-1.638;2022-08-21T19:31:29;4.20;;;1.10;;
19609;SDS011;9952;47.122;-1.638;2022-08-21T19:36:12;6.83;;;2.03;;
19609;SDS011;9952;47.122;-1.638;2022-08-21T19:40:54;3.37;;;1.17;;
19609;SDS011;9952;47.122;-1.638;2022-08-21T19:45:35;4.57;;;1.40;;
19609;SDS011;9952;47.122;-1.638;2022-08-21T19:50:16;5.53;;;1.37;;
19609;SDS011;9952;47.122;-1.638;2022-08-21T19:54:57;5.50;;;1.20;;
19609;SDS011;9952;47.122;-1.638;2022-08-21T19:59:38;2.60;;;1.10;;
19609;SDS011;9952;47.122;-1.638;2022-08-21T20:04:20;6.83;;;1.53;;
19609;SDS011;9952;47.122;-1.638;2022-08-21T20:09:02;7.93;;;1.60;;
19609;SDS011;9952;47.122;-1.638;2022-08-21T20:13:44;2.73;;;1.33;;
19609;SDS011;9952;47.122;-1.638;2022-08-21T20:18:25;6.10;;;1.40;;
19609;SDS011;9952;47.122;-1.638;2022-08-21T20:23:06;5.50;;;1.53;;
19609;SDS011;9952;47.122;-1.638;2022-08-21T20:27:47;2.30;;;1.00;;
19609;SDS011;9952;47.122;-1.638;2022-08-21T20:32:28;3.70;;;1.20;;
19609;SDS011;9952;47.122;-1.638;2022-08-21T20:37:09;5.90;;;1.60;;
19609;SDS011;9952;47.122;-1.638;2022-08-21T20:41:50;7.70;;;1.97;;
19609;SDS011;9952;47.122;-1.638;2022-08-21T20:46:32;2.47;;;1.60;;
19609;SDS011;9952;47.122;-1.638;2022-08-21T20:56:04;1.60;;;1.50;;
19609;SDS011;9952;47.122;-1.638;2022-08-21T21:00:48;6.37;;;1.80;;
19609;SDS011;9952;47.122;-1.638;2022-08-21T21:05:33;4.97;;;1.50;;
19609;SDS011;9952;47.122;-1.638;2022-08-21T21:10:26;5.03;;;1.30;;
19609;SDS011;9952;47.122;-1.638;2022-08-21T21:15:30;6.93;;;1.50;;
19609;SDS011;9952;47.122;-1.638;2022-08-21T21:20:15;10.07;;;1.57;;
19609;SDS011;9952;47.122;-1.638;2022-08-21T21:25:03;8.20;;;1.77;;
19609;SDS011;9952;47.122;-1.638;2022-08-21T21:30:07;6.00;;;1.50;;
19609;SDS011;9952;47.122;-1.638;2022-08-21T21:35:09;5.20;;;1.80;;
19609;SDS011;9952;47.122;-1.638;2022-08-21T21:39:57;7.03;;;1.17;;
19609;SDS011;9952;47.122;-1.638;2022-08-21T22:00:21;4.17;;;1.30;;
19609;SDS011;9952;47.122;-1.638;2022-08-21T22:05:17;5.57;;;1.93;;
19609;SDS011;9952;47.122;-1.638;2022-08-21T22:10:31;7.60;;;1.60;;
19609;SDS011;9952;47.122;-1.638;2022-08-21T22:15:19;5.13;;;1.27;;
19609;SDS011;9952;47.122;-1.638;2022-08-21T22:20:03;6.87;;;2.00;;
19609;SDS011;9952;47.122;-1.638;2022-08-21T22:24:49;10.33;;;1.50;;
19609;SDS011;9952;47.122;-1.638;2022-08-21T22:29:42;4.83;;;1.70;;
19609;SDS011;9952;47.122;-1.638;2022-08-21T22:34:34;4.10;;;1.90;;
19609;SDS011;9952;47.122;-1.638;2022-08-21T22:39:17;5.17;;;1.83;;
19609;SDS011;9952;47.122;-1.638;2022-08-21T22:44:17;7.80;;;1.80;;
19609;SDS011;9952;47.122;-1.638;2022-08-21T22:49:07;6.60;;;1.87;;
19609;SDS011;9952;47.122;-1.638;2022-08-21T22:54:31;3.50;;;1.17;;
19609;SDS011;9952;47.122;-1.638;2022-08-21T22:59:22;6.30;;;1.40;;
19609;SDS011;9952;47.122;-1.638;2022-08-21T23:04:19;7.13;;;1.83;;
19609;SDS011;9952;47.122;-1.638;2022-08-21T23:09:02;6.67;;;2.10;;
19609;SDS011;9952;47.122;-1.638;2022-08-21T23:13:48;3.63;;;1.60;;
19609;SDS011;9952;47.122;-1.638;2022-08-21T23:23:27;13.33;;;1.90;;
19609;SDS011;9952;47.122;-1.638;2022-08-21T23:28:17;4.80;;;1.50;;
19609;SDS011;9952;47.122;-1.638;2022-08-21T23:33:22;8.47;;;1.63;;
19609;SDS011;9952;47.122;-1.638;2022-08-21T23:52:59;5.83;;;1.47;;
